sensor_id;sensor_type;location;lat;lon;timestamp;pressure;altitude;pressure_sealevel;temperature;humidity
15193;BME280;7697;51.630;7.484;2022-07-23T00:04:11;101125.06;;;18.92;86.70
15193;BME280;7697;51.630;7.484;2022-07-23T00:09:14;101103.81;;;18.90;86.98
15193;BME280;7697;51.630;7.484;2022-07-23T00:14:16;101075.03;;;18.86;87.36
15193;BME280;7697;51.630;7.484;2022-07-23T00:19:17;101070.13;;;18.83;87.98
15193;BME280;7697;51.630;7.484;2022-07-23T00:24:21;101067.25;;;18.72;88.66
15193;BME280;7697;51.630;7.484;2022-07-23T00:29:22;101078.00;;;18.72;88.69
15193;BME280;7697;51.630;7.484;2022-07-23T00:34:24;101071.72;;;18.67;89.17
15193;BME280;7697;51.630;7.484;2022-07-23T00:39:27;101064.66;;;18.61;89.50
15193;BME280;7697;51.630;7.484;2022-07-23T00:44:29;101067.56;;;18.48;89.83
15193;BME280;7697;51.630;7.484;2022-07-23T00:49:31;101084.13;;;18.45;89.57
15193;BME280;7697;51.630;7.484;2022-07-23T00:54:35;101088.69;;;18.44;90.11
15193;BME280;7697;51.630;7.484;2022-07-23T00:59:38;101088.22;;;18.47;90.27
15193;BME280;7697;51.630;7.484;2022-07-23T01:04:40;101080.41;;;18.46;90.25
15193;BME280;7697;51.630;7.484;2022-07-23T01:09:44;101058.13;;;18.45;90.20
15193;BME280;7697;51.630;7.484;2022-07-23T01:14:53;101054.38;;;18.46;90.45
15193;BME280;7697;51.630;7.484;2022-07-23T01:19:55;101061.31;;;18.42;90.91
15193;BME280;7697;51.630;7.484;2022-07-23T01:24:58;101071.44;;;18.40;91.07
15193;BME280;7697;51.630;7.484;2022-07-23T01:30:00;101053.25;;;18.42;91.12
15193;BME280;7697;51.630;7.484;2022-07-23T01:35:03;101058.63;;;18.42;91.51
15193;BME280;7697;51.630;7.484;2022-07-23T01:40:06;101047.06;;;18.42;91.45
15193;BME280;7697;51.630;7.484;2022-07-23T01:45:09;101054.53;;;18.40;91.47
15193;BME280;7697;51.630;7.484;2022-07-23T01:50:11;101048.81;;;18.36;91.76
15193;BME280;7697;51.630;7.484;2022-07-23T01:55:14;101048.00;;;18.35;91.73
15193;BME280;7697;51.630;7.484;2022-07-23T02:00:16;101041.81;;;18.35;91.58
15193;BME280;7697;51.630;7.484;2022-07-23T02:05:18;101060.06;;;18.33;91.78
15193;BME280;7697;51.630;7.484;2022-07-23T02:10:22;101051.66;;;18.29;92.74
15193;BME280;7697;51.630;7.484;2022-07-23T02:15:23;101051.88;;;18.28;92.76
15193;BME280;7697;51.630;7.484;2022-07-23T02:20:25;101042.22;;;18.27;92.69
15193;BME280;7697;51.630;7.484;2022-07-23T02:25:28;101045.72;;;18.27;92.82
15193;BME280;7697;51.630;7.484;2022-07-23T02:30:30;101044.00;;;18.21;93.25
15193;BME280;7697;51.630;7.484;2022-07-23T02:35:32;101048.44;;;18.16;93.36
15193;BME280;7697;51.630;7.484;2022-07-23T02:40:35;101040.63;;;18.14;93.70
15193;BME280;7697;51.630;7.484;2022-07-23T02:45:36;101037.59;;;18.11;93.78
15193;BME280;7697;51.630;7.484;2022-07-23T02:50:38;101048.91;;;18.13;94.00
15193;BME280;7697;51.630;7.484;2022-07-23T02:55:42;101048.31;;;18.11;93.92
15193;BME280;7697;51.630;7.484;2022-07-23T03:00:44;101055.91;;;18.02;94.10
15193;BME280;7697;51.630;7.484;2022-07-23T03:05:46;101047.78;;;17.97;94.06
15193;BME280;7697;51.630;7.484;2022-07-23T03:10:49;101044.75;;;17.93;94.04
15193;BME280;7697;51.630;7.484;2022-07-23T03:15:51;101038.72;;;17.86;93.62
15193;BME280;7697;51.630;7.484;2022-07-23T03:20:53;101043.72;;;17.83;93.50
15193;BME280;7697;51.630;7.484;2022-07-23T03:25:56;101045.25;;;17.79;93.41
15193;BME280;7697;51.630;7.484;2022-07-23T03:30:58;101048.38;;;17.76;93.38
15193;BME280;7697;51.630;7.484;2022-07-23T03:36:00;101048.16;;;17.66;93.32
15193;BME280;7697;51.630;7.484;2022-07-23T03:41:03;101035.91;;;17.58;93.26
15193;BME280;7697;51.630;7.484;2022-07-23T03:46:05;101044.31;;;17.50;93.62
15193;BME280;7697;51.630;7.484;2022-07-23T03:51:07;101040.44;;;17.46;93.42
15193;BME280;7697;51.630;7.484;2022-07-23T03:56:10;101042.31;;;17.45;93.83
15193;BME280;7697;51.630;7.484;2022-07-23T04:01:12;101045.69;;;17.41;93.52
15193;BME280;7697;51.630;7.484;2022-07-23T04:06:14;101048.81;;;17.38;93.53
15193;BME280;7697;51.630;7.484;2022-07-23T04:11:17;101053.50;;;17.31;93.44
15193;BME280;7697;51.630;7.484;2022-07-23T04:16:19;101057.69;;;17.27;93.38
15193;BME280;7697;51.630;7.484;2022-07-23T04:21:20;101064.09;;;17.25;93.54
15193;BME280;7697;51.630;7.484;2022-07-23T04:26:24;101058.16;;;17.23;93.69
15193;BME280;7697;51.630;7.484;2022-07-23T04:31:25;101064.09;;;17.25;93.71
15193;BME280;7697;51.630;7.484;2022-07-23T04:36:27;101072.69;;;17.27;94.05
15193;BME280;7697;51.630;7.484;2022-07-23T04:41:30;101074.47;;;17.34;94.09
15193;BME280;7697;51.630;7.484;2022-07-23T04:46:32;101076.66;;;17.37;94.29
15193;BME280;7697;51.630;7.484;2022-07-23T04:51:34;101070.84;;;17.40;94.98
15193;BME280;7697;51.630;7.484;2022-07-23T04:56:37;101076.56;;;17.43;94.61
15193;BME280;7697;51.630;7.484;2022-07-23T05:01:38;101088.44;;;17.47;94.78
15193;BME280;7697;51.630;7.484;2022-07-23T05:06:42;101083.44;;;17.51;94.84
15193;BME280;7697;51.630;7.484;2022-07-23T05:11:45;101089.47;;;17.58;94.69
15193;BME280;7697;51.630;7.484;2022-07-23T05:16:47;101091.72;;;17.61;94.91
15193;BME280;7697;51.630;7.484;2022-07-23T05:21:48;101102.34;;;17.68;94.70
15193;BME280;7697;51.630;7.484;2022-07-23T05:26:52;101100.47;;;17.68;94.81
15193;BME280;7697;51.630;7.484;2022-07-23T05:31:53;101110.72;;;17.71;95.05
15193;BME280;7697;51.630;7.484;2022-07-23T05:36:55;101108.63;;;17.73;95.45
15193;BME280;7697;51.630;7.484;2022-07-23T05:41:58;101099.88;;;17.78;95.65
15193;BME280;7697;51.630;7.484;2022-07-23T05:47:00;101105.13;;;17.73;95.70
15193;BME280;7697;51.630;7.484;2022-07-23T05:52:04;101107.44;;;17.81;95.69
15193;BME280;7697;51.630;7.484;2022-07-23T05:57:07;101114.34;;;17.88;95.64
15193;BME280;7697;51.630;7.484;2022-07-23T06:02:09;101110.72;;;17.94;95.58
15193;BME280;7697;51.630;7.484;2022-07-23T06:07:11;101113.16;;;17.96;96.20
15193;BME280;7697;51.630;7.484;2022-07-23T06:12:14;101126.78;;;17.94;96.06
15193;BME280;7697;51.630;7.484;2022-07-23T06:17:16;101135.53;;;18.02;96.14
15193;BME280;7697;51.630;7.484;2022-07-23T06:22:18;101126.28;;;18.21;95.95
15193;BME280;7697;51.630;7.484;2022-07-23T06:27:21;101139.34;;;18.29;96.07
15193;BME280;7697;51.630;7.484;2022-07-23T06:32:23;101136.72;;;18.46;95.68
15193;BME280;7697;51.630;7.484;2022-07-23T06:37:24;101148.63;;;18.61;95.37
15193;BME280;7697;51.630;7.484;2022-07-23T06:42:30;101144.63;;;18.76;94.69
15193;BME280;7697;51.630;7.484;2022-07-23T06:47:32;101143.34;;;18.78;94.41
15193;BME280;7697;51.630;7.484;2022-07-23T06:52:34;101143.03;;;18.91;94.76
15193;BME280;7697;51.630;7.484;2022-07-23T06:57:37;101150.06;;;19.09;93.98
15193;BME280;7697;51.630;7.484;2022-07-23T07:02:39;101164.69;;;19.30;93.36
15193;BME280;7697;51.630;7.484;2022-07-23T07:07:40;101160.38;;;19.45;92.60
15193;BME280;7697;51.630;7.484;2022-07-23T07:12:43;101157.81;;;19.67;92.45
15193;BME280;7697;51.630;7.484;2022-07-23T07:17:45;101164.47;;;19.81;92.67
15193;BME280;7697;51.630;7.484;2022-07-23T07:22:47;101165.91;;;20.06;91.39
15193;BME280;7697;51.630;7.484;2022-07-23T07:27:50;101166.91;;;20.60;88.89
15193;BME280;7697;51.630;7.484;2022-07-23T07:32:52;101169.56;;;20.55;89.27
15193;BME280;7697;51.630;7.484;2022-07-23T07:37:54;101169.88;;;20.80;89.33
15193;BME280;7697;51.630;7.484;2022-07-23T07:42:57;101177.63;;;20.77;87.53
15193;BME280;7697;51.630;7.484;2022-07-23T07:47:59;101178.75;;;20.59;88.78
15193;BME280;7697;51.630;7.484;2022-07-23T07:53:01;101179.81;;;20.80;88.59
15193;BME280;7697;51.630;7.484;2022-07-23T07:58:04;101179.34;;;21.10;87.04
15193;BME280;7697;51.630;7.484;2022-07-23T08:03:05;101188.19;;;21.32;86.83
15193;BME280;7697;51.630;7.484;2022-07-23T08:08:07;101191.50;;;21.39;83.26
15193;BME280;7697;51.630;7.484;2022-07-23T08:13:16;101192.13;;;21.19;81.88
15193;BME280;7697;51.630;7.484;2022-07-23T08:18:18;101204.59;;;21.57;81.67
15193;BME280;7697;51.630;7.484;2022-07-23T08:23:20;101201.16;;;21.62;82.37
15193;BME280;7697;51.630;7.484;2022-07-23T08:28:23;101214.69;;;21.40;82.23
15193;BME280;7697;51.630;7.484;2022-07-23T08:33:25;101220.44;;;21.81;80.46
15193;BME280;7697;51.630;7.484;2022-07-23T08:38:26;101218.75;;;22.43;76.91
15193;BME280;7697;51.630;7.484;2022-07-23T08:43:31;101220.75;;;22.73;76.76
15193;BME280;7697;51.630;7.484;2022-07-23T08:48:35;101224.34;;;22.84;77.56
15193;BME280;7697;51.630;7.484;2022-07-23T08:53:37;101225.81;;;23.17;76.25
15193;BME280;7697;51.630;7.484;2022-07-23T08:58:42;101229.41;;;23.73;72.79
15193;BME280;7697;51.630;7.484;2022-07-23T09:03:43;101232.91;;;23.53;70.00
15193;BME280;7697;51.630;7.484;2022-07-23T09:08:46;101238.91;;;23.61;73.61
15193;BME280;7697;51.630;7.484;2022-07-23T09:13:50;101225.06;;;24.03;70.99
15193;BME280;7697;51.630;7.484;2022-07-23T09:18:54;101234.81;;;24.29;66.27
15193;BME280;7697;51.630;7.484;2022-07-23T09:23:58;101231.44;;;24.67;68.74
15193;BME280;7697;51.630;7.484;2022-07-23T09:29:08;101240.53;;;24.97;66.92
15193;BME280;7697;51.630;7.484;2022-07-23T09:34:13;101227.78;;;25.02;64.71
15193;BME280;7697;51.630;7.484;2022-07-23T09:39:24;101236.03;;;25.31;64.64
15193;BME280;7697;51.630;7.484;2022-07-23T09:44:28;101241.75;;;25.69;63.64
15193;BME280;7697;51.630;7.484;2022-07-23T09:49:31;101247.47;;;25.96;61.17
15193;BME280;7697;51.630;7.484;2022-07-23T09:54:34;101243.84;;;26.11;59.96
15193;BME280;7697;51.630;7.484;2022-07-23T09:59:39;101244.28;;;25.89;57.83
15193;BME280;7697;51.630;7.484;2022-07-23T10:04:41;101244.72;;;26.01;58.65
15193;BME280;7697;51.630;7.484;2022-07-23T10:09:47;101239.91;;;26.22;58.74
15193;BME280;7697;51.630;7.484;2022-07-23T10:14:52;101233.66;;;26.50;55.66
15193;BME280;7697;51.630;7.484;2022-07-23T10:19:54;101231.34;;;26.63;56.30
15193;BME280;7697;51.630;7.484;2022-07-23T10:25:03;101239.81;;;26.80;56.90
15193;BME280;7697;51.630;7.484;2022-07-23T10:30:14;101228.81;;;26.90;55.37
15193;BME280;7697;51.630;7.484;2022-07-23T10:35:24;101225.00;;;27.47;54.32
15193;BME280;7697;51.630;7.484;2022-07-23T10:40:28;101228.22;;;27.54;51.89
15193;BME280;7697;51.630;7.484;2022-07-23T10:45:34;101229.44;;;27.24;52.00
15193;BME280;7697;51.630;7.484;2022-07-23T10:50:37;101238.28;;;27.16;52.54
15193;BME280;7697;51.630;7.484;2022-07-23T10:55:41;101228.78;;;27.84;52.68
15193;BME280;7697;51.630;7.484;2022-07-23T11:00:45;101234.00;;;28.13;49.93
15193;BME280;7697;51.630;7.484;2022-07-23T11:05:47;101227.09;;;27.88;50.42
15193;BME280;7697;51.630;7.484;2022-07-23T11:10:54;101234.00;;;27.67;49.53
15193;BME280;7697;51.630;7.484;2022-07-23T11:16:14;101221.56;;;27.60;50.26
15193;BME280;7697;51.630;7.484;2022-07-23T11:21:40;101224.56;;;28.24;50.31
15193;BME280;7697;51.630;7.484;2022-07-23T11:26:52;101223.19;;;28.26;51.00
15193;BME280;7697;51.630;7.484;2022-07-23T11:31:57;101221.72;;;28.15;48.23
15193;BME280;7697;51.630;7.484;2022-07-23T11:37:00;101227.91;;;28.48;49.06
15193;BME280;7697;51.630;7.484;2022-07-23T11:42:03;101222.66;;;28.93;46.40
15193;BME280;7697;51.630;7.484;2022-07-23T11:47:09;101214.75;;;28.91;47.24
15193;BME280;7697;51.630;7.484;2022-07-23T11:52:14;101223.97;;;28.82;46.78
15193;BME280;7697;51.630;7.484;2022-07-23T11:57:16;101213.03;;;29.31;48.27
15193;BME280;7697;51.630;7.484;2022-07-23T12:02:19;101215.00;;;29.17;45.25
15193;BME280;7697;51.630;7.484;2022-07-23T12:07:26;101225.59;;;29.19;46.46
15193;BME280;7697;51.630;7.484;2022-07-23T12:12:35;101216.81;;;29.22;46.49
15193;BME280;7697;51.630;7.484;2022-07-23T12:17:39;101212.53;;;29.43;46.39
15193;BME280;7697;51.630;7.484;2022-07-23T12:22:43;101220.19;;;29.63;45.25
15193;BME280;7697;51.630;7.484;2022-07-23T12:27:46;101219.31;;;29.99;45.25
15193;BME280;7697;51.630;7.484;2022-07-23T12:32:51;101218.56;;;30.46;43.73
15193;BME280;7697;51.630;7.484;2022-07-23T12:38:00;101216.22;;;30.62;43.98
15193;BME280;7697;51.630;7.484;2022-07-23T12:43:04;101211.72;;;30.57;43.10
15193;BME280;7697;51.630;7.484;2022-07-23T12:48:14;101219.75;;;30.63;42.45
15193;BME280;7697;51.630;7.484;2022-07-23T12:53:18;101213.25;;;30.41;42.06
15193;BME280;7697;51.630;7.484;2022-07-23T12:58:20;101210.72;;;30.53;41.29
15193;BME280;7697;51.630;7.484;2022-07-23T13:03:25;101214.16;;;30.76;41.33
15193;BME280;7697;51.630;7.484;2022-07-23T13:08:29;101213.50;;;30.71;42.47
15193;BME280;7697;51.630;7.484;2022-07-23T13:13:33;101222.72;;;31.01;41.07
15193;BME280;7697;51.630;7.484;2022-07-23T13:18:36;101230.63;;;31.02;42.11
15193;BME280;7697;51.630;7.484;2022-07-23T13:23:38;101231.13;;;31.47;41.33
15193;BME280;7697;51.630;7.484;2022-07-23T13:28:39;101229.84;;;31.53;40.12
15193;BME280;7697;51.630;7.484;2022-07-23T13:33:43;101227.09;;;31.45;42.40
15193;BME280;7697;51.630;7.484;2022-07-23T13:38:44;101225.81;;;31.25;40.43
15193;BME280;7697;51.630;7.484;2022-07-23T13:43:46;101221.59;;;30.93;42.27
15193;BME280;7697;51.630;7.484;2022-07-23T13:48:49;101216.53;;;30.61;41.70
15193;BME280;7697;51.630;7.484;2022-07-23T13:53:51;101209.94;;;30.62;41.41
15193;BME280;7697;51.630;7.484;2022-07-23T13:58:53;101216.91;;;30.76;40.51
15193;BME280;7697;51.630;7.484;2022-07-23T14:03:56;101219.66;;;31.02;41.87
15193;BME280;7697;51.630;7.484;2022-07-23T14:08:57;101206.63;;;30.99;41.92
15193;BME280;7697;51.630;7.484;2022-07-23T14:13:59;101205.03;;;31.41;41.65
15193;BME280;7697;51.630;7.484;2022-07-23T14:19:03;101202.78;;;31.26;37.79
15193;BME280;7697;51.630;7.484;2022-07-23T14:24:05;101205.50;;;30.43;39.28
15193;BME280;7697;51.630;7.484;2022-07-23T14:29:07;101200.19;;;30.38;41.96
15193;BME280;7697;51.630;7.484;2022-07-23T14:34:11;101199.09;;;30.48;40.14
15193;BME280;7697;51.630;7.484;2022-07-23T14:39:13;101193.63;;;30.48;39.59
15193;BME280;7697;51.630;7.484;2022-07-23T14:44:14;101194.63;;;30.61;41.12
15193;BME280;7697;51.630;7.484;2022-07-23T14:49:18;101197.84;;;30.54;41.45
15193;BME280;7697;51.630;7.484;2022-07-23T14:54:19;101197.72;;;30.68;40.54
15193;BME280;7697;51.630;7.484;2022-07-23T14:59:21;101199.47;;;30.64;40.37
15193;BME280;7697;51.630;7.484;2022-07-23T15:04:25;101187.44;;;30.82;39.92
15193;BME280;7697;51.630;7.484;2022-07-23T15:09:27;101188.25;;;30.82;40.29
15193;BME280;7697;51.630;7.484;2022-07-23T15:14:28;101179.22;;;30.82;40.04
15193;BME280;7697;51.630;7.484;2022-07-23T15:19:31;101186.31;;;30.66;38.15
15193;BME280;7697;51.630;7.484;2022-07-23T15:24:33;101187.47;;;30.34;38.72
15193;BME280;7697;51.630;7.484;2022-07-23T15:29:35;101180.03;;;30.26;40.68
15193;BME280;7697;51.630;7.484;2022-07-23T15:34:38;101176.53;;;30.42;41.21
15193;BME280;7697;51.630;7.484;2022-07-23T15:39:40;101174.25;;;30.27;41.04
15193;BME280;7697;51.630;7.484;2022-07-23T15:44:42;101177.66;;;30.33;41.42
15193;BME280;7697;51.630;7.484;2022-07-23T15:49:45;101173.03;;;30.42;40.70
15193;BME280;7697;51.630;7.484;2022-07-23T15:54:47;101179.72;;;30.27;41.33
15193;BME280;7697;51.630;7.484;2022-07-23T15:59:49;101181.22;;;30.33;42.07
15193;BME280;7697;51.630;7.484;2022-07-23T16:04:52;101172.63;;;30.17;41.68
15193;BME280;7697;51.630;7.484;2022-07-23T16:09:54;101181.09;;;30.07;43.22
15193;BME280;7697;51.630;7.484;2022-07-23T16:14:56;101183.25;;;29.88;42.74
15193;BME280;7697;51.630;7.484;2022-07-23T16:19:59;101180.22;;;29.67;43.25
15193;BME280;7697;51.630;7.484;2022-07-23T16:25:01;101172.91;;;29.32;43.59
15193;BME280;7697;51.630;7.484;2022-07-23T16:30:04;101177.50;;;28.87;41.81
15193;BME280;7697;51.630;7.484;2022-07-23T16:35:08;101170.31;;;28.63;43.13
15193;BME280;7697;51.630;7.484;2022-07-23T16:40:11;101168.00;;;28.70;43.52
15193;BME280;7697;51.630;7.484;2022-07-23T16:45:13;101176.81;;;28.40;42.84
15193;BME280;7697;51.630;7.484;2022-07-23T16:50:17;101173.78;;;28.28;43.64
15193;BME280;7697;51.630;7.484;2022-07-23T16:55:19;101162.41;;;28.26;43.64
15193;BME280;7697;51.630;7.484;2022-07-23T17:00:21;101171.44;;;27.94;43.44
15193;BME280;7697;51.630;7.484;2022-07-23T17:05:25;101171.31;;;27.85;45.39
15193;BME280;7697;51.630;7.484;2022-07-23T17:10:26;101161.69;;;27.60;45.49
15193;BME280;7697;51.630;7.484;2022-07-23T17:15:28;101166.47;;;27.50;46.52
15193;BME280;7697;51.630;7.484;2022-07-23T17:20:31;101173.09;;;27.44;46.58
15193;BME280;7697;51.630;7.484;2022-07-23T17:25:33;101174.50;;;27.41;46.94
15193;BME280;7697;51.630;7.484;2022-07-23T17:30:35;101176.22;;;27.37;47.54
15193;BME280;7697;51.630;7.484;2022-07-23T17:35:39;101185.63;;;27.26;46.98
15193;BME280;7697;51.630;7.484;2022-07-23T17:40:41;101172.59;;;27.23;46.37
15193;BME280;7697;51.630;7.484;2022-07-23T17:45:42;101177.72;;;27.11;46.88
15193;BME280;7697;51.630;7.484;2022-07-23T17:50:46;101183.59;;;26.99;47.14
15193;BME280;7697;51.630;7.484;2022-07-23T17:55:47;101187.78;;;26.92;47.36
15193;BME280;7697;51.630;7.484;2022-07-23T18:00:49;101190.06;;;26.79;47.35
15193;BME280;7697;51.630;7.484;2022-07-23T18:05:53;101185.38;;;26.66;47.86
15193;BME280;7697;51.630;7.484;2022-07-23T18:10:54;101181.06;;;26.60;47.97
15193;BME280;7697;51.630;7.484;2022-07-23T18:15:56;101188.78;;;26.53;49.11
15193;BME280;7697;51.630;7.484;2022-07-23T18:21:00;101188.03;;;26.47;50.52
15193;BME280;7697;51.630;7.484;2022-07-23T18:26:02;101193.00;;;26.40;50.69
15193;BME280;7697;51.630;7.484;2022-07-23T18:31:04;101201.28;;;26.30;50.85
15193;BME280;7697;51.630;7.484;2022-07-23T18:36:08;101204.91;;;26.21;50.98
15193;BME280;7697;51.630;7.484;2022-07-23T18:41:10;101203.94;;;26.06;52.14
15193;BME280;7697;51.630;7.484;2022-07-23T18:46:12;101202.41;;;25.95;52.76
15193;BME280;7697;51.630;7.484;2022-07-23T18:51:15;101206.28;;;25.89;53.24
15193;BME280;7697;51.630;7.484;2022-07-23T18:56:17;101206.44;;;25.74;52.84
15193;BME280;7697;51.630;7.484;2022-07-23T19:01:19;101205.44;;;25.60;53.22
15193;BME280;7697;51.630;7.484;2022-07-23T19:06:22;101211.44;;;25.52;54.41
15193;BME280;7697;51.630;7.484;2022-07-23T19:11:24;101210.47;;;25.37;55.26
15193;BME280;7697;51.630;7.484;2022-07-23T19:16:26;101204.88;;;25.24;55.85
15193;BME280;7697;51.630;7.484;2022-07-23T19:21:29;101211.69;;;25.16;57.00
15193;BME280;7697;51.630;7.484;2022-07-23T19:26:31;101204.75;;;25.00;58.11
15193;BME280;7697;51.630;7.484;2022-07-23T19:31:33;101217.28;;;24.86;58.13
15193;BME280;7697;51.630;7.484;2022-07-23T19:36:36;101226.00;;;24.73;58.13
15193;BME280;7697;51.630;7.484;2022-07-23T19:41:39;101234.72;;;24.59;58.47
15193;BME280;7697;51.630;7.484;2022-07-23T19:46:42;101231.22;;;24.44;58.81
15193;BME280;7697;51.630;7.484;2022-07-23T19:51:45;101237.50;;;24.29;59.58
15193;BME280;7697;51.630;7.484;2022-07-23T19:56:47;101232.63;;;24.11;60.28
15193;BME280;7697;51.630;7.484;2022-07-23T20:01:48;101241.03;;;23.99;60.76
15193;BME280;7697;51.630;7.484;2022-07-23T20:06:51;101232.41;;;23.87;61.30
15193;BME280;7697;51.630;7.484;2022-07-23T20:11:53;101228.34;;;23.74;61.96
15193;BME280;7697;51.630;7.484;2022-07-23T20:16:55;101238.06;;;23.65;62.63
15193;BME280;7697;51.630;7.484;2022-07-23T20:21:58;101240.75;;;23.55;63.00
15193;BME280;7697;51.630;7.484;2022-07-23T20:27:00;101247.75;;;23.41;63.04
15193;BME280;7697;51.630;7.484;2022-07-23T20:32:03;101243.94;;;23.32;63.55
15193;BME280;7697;51.630;7.484;2022-07-23T20:37:07;101242.84;;;23.23;63.93
15193;BME280;7697;51.630;7.484;2022-07-23T20:42:08;101251.19;;;23.11;64.70
15193;BME280;7697;51.630;7.484;2022-07-23T20:47:10;101258.75;;;23.04;65.29
15193;BME280;7697;51.630;7.484;2022-07-23T20:52:13;101255.47;;;22.97;64.92
15193;BME280;7697;51.630;7.484;2022-07-23T20:57:15;101251.91;;;22.91;66.18
15193;BME280;7697;51.630;7.484;2022-07-23T21:02:17;101257.81;;;22.78;66.30
15193;BME280;7697;51.630;7.484;2022-07-23T21:07:20;101262.88;;;22.69;66.67
15193;BME280;7697;51.630;7.484;2022-07-23T21:12:22;101269.31;;;22.58;66.98
15193;BME280;7697;51.630;7.484;2022-07-23T21:17:25;101265.47;;;22.49;67.30
15193;BME280;7697;51.630;7.484;2022-07-23T21:22:28;101271.63;;;22.39;68.33
15193;BME280;7697;51.630;7.484;2022-07-23T21:27:30;101273.19;;;22.30;68.88
15193;BME280;7697;51.630;7.484;2022-07-23T21:32:31;101277.19;;;22.23;69.27
15193;BME280;7697;51.630;7.484;2022-07-23T21:37:34;101274.16;;;22.14;69.91
15193;BME280;7697;51.630;7.484;2022-07-23T21:42:36;101270.31;;;22.05;69.49
15193;BME280;7697;51.630;7.484;2022-07-23T21:47:38;101275.13;;;21.98;70.26
15193;BME280;7697;51.630;7.484;2022-07-23T21:52:41;101265.53;;;21.85;70.05
15193;BME280;7697;51.630;7.484;2022-07-23T21:57:43;101266.81;;;21.78;70.35
15193;BME280;7697;51.630;7.484;2022-07-23T22:02:46;101264.59;;;21.69;70.87
15193;BME280;7697;51.630;7.484;2022-07-23T22:07:49;101269.88;;;21.59;71.51
15193;BME280;7697;51.630;7.484;2022-07-23T22:12:51;101275.72;;;21.51;71.26
15193;BME280;7697;51.630;7.484;2022-07-23T22:17:53;101280.03;;;21.47;71.80
15193;BME280;7697;51.630;7.484;2022-07-23T22:22:56;101278.06;;;21.43;72.22
15193;BME280;7697;51.630;7.484;2022-07-23T22:27:58;101269.63;;;21.34;72.67
15193;BME280;7697;51.630;7.484;2022-07-23T22:33:00;101269.25;;;21.25;72.67
15193;BME280;7697;51.630;7.484;2022-07-23T22:38:03;101277.84;;;21.22;72.88
15193;BME280;7697;51.630;7.484;2022-07-23T22:43:05;101274.25;;;21.17;72.67
15193;BME280;7697;51.630;7.484;2022-07-23T22:48:06;101279.03;;;21.10;72.86
15193;BME280;7697;51.630;7.484;2022-07-23T22:53:09;101270.81;;;21.00;73.45
15193;BME280;7697;51.630;7.484;2022-07-23T22:58:11;101275.06;;;20.95;73.47
15193;BME280;7697;51.630;7.484;2022-07-23T23:03:13;101278.28;;;20.92;73.33
15193;BME280;7697;51.630;7.484;2022-07-23T23:08:16;101277.13;;;20.88;73.06
15193;BME280;7697;51.630;7.484;2022-07-23T23:13:18;101283.53;;;20.82;73.27
15193;BME280;7697;51.630;7.484;2022-07-23T23:18:20;101276.38;;;20.71;73.40
15193;BME280;7697;51.630;7.484;2022-07-23T23:23:23;101274.34;;;20.62;73.95
15193;BME280;7697;51.630;7.484;2022-07-23T23:28:25;101269.97;;;20.55;74.15
15193;BME280;7697;51.630;7.484;2022-07-23T23:33:26;101265.41;;;20.56;73.82
15193;BME280;7697;51.630;7.484;2022-07-23T23:38:29;101271.84;;;20.55;74.00
15193;BME280;7697;51.630;7.484;2022-07-23T23:43:31;101264.50;;;20.50;74.18
15193;BME280;7697;51.630;7.484;2022-07-23T23:48:33;101272.28;;;20.47;74.29
15193;BME280;7697;51.630;7.484;2022-07-23T23:53:36;101261.41;;;20.42;74.53
15193;BME280;7697;51.630;7.484;2022-07-23T23:58:38;101264.06;;;20.37;74.75
